createdAt,value
2023-03-11T00:01:35.831Z,8.40
2023-03-11T00:04:04.015Z,11.63
2023-03-11T00:06:31.911Z,7.63
2023-03-11T00:09:00.194Z,6.88
2023-03-11T00:11:29.493Z,6.75
2023-03-11T00:13:57.640Z,7.60
2023-03-11T00:16:25.993Z,7.15
2023-03-11T00:18:54.437Z,6.88
2023-03-11T00:21:22.529Z,7.95
2023-03-11T00:23:50.841Z,6.65
2023-03-11T00:26:18.920Z,7.93
2023-03-11T00:28:49.374Z,10.32
2023-03-11T00:31:17.856Z,8.70
2023-03-11T00:33:46.120Z,9.57
2023-03-11T00:36:22.919Z,6.53
2023-03-11T00:38:51.326Z,6.47
2023-03-11T00:41:19.618Z,7.35
2023-03-11T00:43:49.461Z,10.30
2023-03-11T00:46:17.531Z,7.95
2023-03-11T00:48:45.977Z,17.17
2023-03-11T00:51:16.119Z,11.15
2023-03-11T00:53:45.082Z,17.92
2023-03-11T00:56:15.041Z,6.53
2023-03-11T00:58:45.216Z,9.13
2023-03-11T01:01:17.459Z,7.45
2023-03-11T01:03:45.991Z,17.55
2023-03-11T01:06:14.864Z,11.13
2023-03-11T01:08:43.364Z,8.55
2023-03-11T01:11:11.417Z,10.10
2023-03-11T01:13:40.293Z,18.75
2023-03-11T01:16:09.355Z,12.52
2023-03-11T01:18:39.022Z,6.05
2023-03-11T01:21:07.236Z,6.13
2023-03-11T01:23:35.682Z,5.63
2023-03-11T01:26:03.827Z,5.50
2023-03-11T01:28:32.421Z,5.68
2023-03-11T01:31:00.393Z,6.60
2023-03-11T01:33:29.094Z,4.55
2023-03-11T01:35:58.739Z,4.22
2023-03-11T01:38:26.983Z,5.63
2023-03-11T01:40:55.199Z,3.90
2023-03-11T01:43:51.715Z,2.90
2023-03-11T01:46:21.007Z,3.28
2023-03-11T01:48:50.970Z,2.67
2023-03-11T01:51:26.063Z,2.20
2023-03-11T01:53:54.576Z,3.17
2023-03-11T01:56:22.610Z,1.27
2023-03-11T01:58:52.768Z,1.75
2023-03-11T02:01:21.867Z,1.48
2023-03-11T02:03:50.746Z,1.42
2023-03-11T02:06:22.243Z,2.90
2023-03-11T02:08:51.283Z,1.00
2023-03-11T02:11:22.629Z,0.70
2023-03-11T02:13:51.185Z,1.52
2023-03-11T02:16:19.157Z,0.88
2023-03-11T02:18:47.454Z,2.88
2023-03-11T02:21:24.586Z,0.65
2023-03-11T02:23:59.174Z,0.90
2023-03-11T02:26:31.712Z,1.10
2023-03-11T02:29:03.156Z,3.33
2023-03-11T02:31:31.201Z,0.82
2023-03-11T02:34:01.251Z,1.02
2023-03-11T02:36:37.037Z,0.73
2023-03-11T02:39:06.581Z,0.93
2023-03-11T02:41:36.750Z,0.65
2023-03-11T02:44:08.394Z,1.60
2023-03-11T02:46:36.805Z,0.80
2023-03-11T02:49:05.139Z,0.93
2023-03-11T02:51:33.091Z,0.55
2023-03-11T02:54:05.612Z,1.75
2023-03-11T02:56:34.324Z,0.60
2023-03-11T02:59:02.655Z,0.65
2023-03-11T03:01:31.949Z,0.20
2023-03-11T03:04:00.309Z,0.20
2023-03-11T03:06:28.680Z,1.13
2023-03-11T03:08:56.975Z,0.30
2023-03-11T03:11:24.956Z,1.30
2023-03-11T03:13:53.241Z,0.20
2023-03-11T03:16:21.189Z,0.95
2023-03-11T03:18:51.567Z,1.10
2023-03-11T03:21:19.771Z,0.40
2023-03-11T03:23:47.926Z,0.70
2023-03-11T03:26:16.058Z,1.42
2023-03-11T03:28:44.238Z,0.88
2023-03-11T03:31:12.502Z,0.60
2023-03-11T03:33:40.929Z,0.57
2023-03-11T03:36:12.719Z,0.73
2023-03-11T03:38:40.970Z,0.82
2023-03-11T03:41:09.266Z,0.98
2023-03-11T03:43:37.432Z,1.88
2023-03-11T03:46:06.485Z,4.13
2023-03-11T03:48:34.978Z,1.27
2023-03-11T03:51:07.295Z,1.52
2023-03-11T03:53:37.803Z,0.98
2023-03-11T03:56:06.279Z,0.77
2023-03-11T03:58:34.667Z,0.93
2023-03-11T04:01:04.022Z,0.90
2023-03-11T04:03:33.715Z,2.08
2023-03-11T04:06:09.636Z,0.80
2023-03-11T04:08:40.445Z,0.95
2023-03-11T04:11:08.550Z,1.27
2023-03-11T04:13:36.900Z,1.02
2023-03-11T04:16:05.478Z,5.95
2023-03-11T04:18:33.651Z,1.20
2023-03-11T04:21:01.895Z,2.95
2023-03-11T04:23:30.186Z,2.45
2023-03-11T04:25:59.794Z,2.80
2023-03-11T04:28:28.002Z,1.00
2023-03-11T04:30:56.012Z,1.17
2023-03-11T04:33:24.929Z,1.95
2023-03-11T04:35:52.881Z,1.05
2023-03-11T04:38:21.082Z,2.30
2023-03-11T04:40:48.986Z,0.70
2023-03-11T04:43:18.479Z,0.80
2023-03-11T04:45:46.467Z,0.82
2023-03-11T04:48:14.638Z,2.58
2023-03-11T04:50:42.545Z,1.17
2023-03-11T04:53:10.796Z,1.73
2023-03-11T04:55:39.041Z,2.88
2023-03-11T04:58:07.227Z,1.63
2023-03-11T05:00:36.562Z,0.82
2023-03-11T05:03:04.813Z,1.88
2023-03-11T05:05:32.787Z,1.58
2023-03-11T05:08:00.996Z,1.98
2023-03-11T05:10:31.689Z,2.53
2023-03-11T05:13:01.455Z,3.88
2023-03-11T05:15:31.134Z,3.80
2023-03-11T05:18:00.700Z,5.07
2023-03-11T05:20:28.714Z,4.13
2023-03-11T05:22:57.151Z,3.05
2023-03-11T05:25:25.596Z,2.67
2023-03-11T05:27:53.931Z,2.33
2023-03-11T05:30:22.222Z,1.90
2023-03-11T05:32:50.645Z,2.33
2023-03-11T05:35:20.862Z,2.17
2023-03-11T05:37:49.937Z,3.05
2023-03-11T05:40:18.515Z,2.60
2023-03-11T05:42:46.867Z,3.10
2023-03-11T05:45:15.394Z,5.10
2023-03-11T05:47:43.701Z,4.60
2023-03-11T05:50:13.560Z,1.63
2023-03-11T05:52:43.488Z,0.95
2023-03-11T05:55:12.368Z,3.22
2023-03-11T05:57:41.021Z,0.98
2023-03-11T06:00:12.232Z,0.80
2023-03-11T06:02:41.046Z,2.05
2023-03-11T06:05:13.393Z,0.50
2023-03-11T06:07:43.460Z,1.30
2023-03-11T06:10:12.776Z,1.10
2023-03-11T06:12:41.279Z,1.15
2023-03-11T06:15:09.838Z,0.90
2023-03-11T06:17:38.445Z,0.82
2023-03-11T06:20:07.637Z,1.10
2023-03-11T06:22:37.681Z,0.93
2023-03-11T06:25:09.480Z,1.20
2023-03-11T06:27:37.761Z,1.30
2023-03-11T06:30:06.512Z,2.05
2023-03-11T06:32:37.246Z,1.20
2023-03-11T06:35:05.820Z,2.13
2023-03-11T06:37:37.075Z,1.58
2023-03-11T06:40:07.596Z,1.40
2023-03-11T06:42:37.264Z,1.27
2023-03-11T06:45:05.826Z,1.50
2023-03-11T06:47:34.071Z,1.08
2023-03-11T06:50:06.464Z,1.35
2023-03-11T06:52:34.666Z,1.67
2023-03-11T06:55:03.736Z,1.42
2023-03-11T06:57:31.940Z,1.90
2023-03-11T07:00:01.303Z,3.22
2023-03-11T07:02:29.625Z,2.97
2023-03-11T07:04:57.707Z,2.25
2023-03-11T07:07:26.130Z,1.50
2023-03-11T07:09:56.189Z,2.05
2023-03-11T07:12:25.383Z,1.40
2023-03-11T07:14:55.868Z,2.63
2023-03-11T07:17:25.714Z,3.35
2023-03-11T07:19:54.128Z,2.80
2023-03-11T07:22:22.547Z,4.05
2023-03-11T07:24:51.076Z,2.67
2023-03-11T07:27:19.816Z,3.05
2023-03-11T07:29:47.826Z,2.50
2023-03-11T07:32:16.527Z,3.15
2023-03-11T07:34:45.854Z,5.63
2023-03-11T07:37:14.285Z,7.15
2023-03-11T07:39:42.826Z,5.15
2023-03-11T07:42:11.287Z,6.75
2023-03-11T07:44:39.184Z,10.43
2023-03-11T07:47:07.796Z,28.35
2023-03-11T07:49:35.900Z,7.28
2023-03-11T07:52:06.086Z,13.18
2023-03-11T07:54:34.074Z,6.85
2023-03-11T07:57:03.685Z,9.55
2023-03-11T07:59:31.698Z,10.95
2023-03-11T08:01:59.897Z,10.02
2023-03-11T08:04:27.918Z,8.05
2023-03-11T08:06:56.383Z,6.38
2023-03-11T08:09:25.588Z,4.75
2023-03-11T08:11:53.764Z,4.40
2023-03-11T08:14:21.750Z,3.65
2023-03-11T08:16:49.988Z,4.55
2023-03-11T08:19:18.090Z,7.10
2023-03-11T08:21:46.371Z,5.30
2023-03-11T08:24:15.306Z,5.15
2023-03-11T08:26:45.202Z,6.57
2023-03-11T08:29:13.238Z,5.07
2023-03-11T08:31:41.593Z,4.68
2023-03-11T08:34:11.662Z,3.70
2023-03-11T08:36:40.533Z,6.05
2023-03-11T08:39:09.537Z,6.70
2023-03-11T08:41:37.891Z,4.78
2023-03-11T08:44:07.651Z,4.90
2023-03-11T08:46:38.353Z,3.78
2023-03-11T08:49:07.201Z,5.45
2023-03-11T08:51:36.310Z,5.38
2023-03-11T08:54:05.009Z,6.78
2023-03-11T08:56:33.441Z,5.00
2023-03-11T08:59:01.388Z,7.15
2023-03-11T09:01:30.961Z,7.95
2023-03-11T09:03:59.333Z,5.97
2023-03-11T09:06:30.207Z,6.35
2023-03-11T09:08:58.680Z,7.28
2023-03-11T09:11:27.510Z,5.72
2023-03-11T09:13:55.456Z,3.97
2023-03-11T09:16:24.581Z,1.42
2023-03-11T09:18:53.882Z,5.60
2023-03-11T09:21:22.151Z,5.25
2023-03-11T09:23:50.540Z,6.10
2023-03-11T09:26:18.897Z,3.90
2023-03-11T09:28:48.814Z,4.13
2023-03-11T09:31:17.971Z,5.32
2023-03-11T09:33:46.367Z,4.22
2023-03-11T09:36:17.363Z,4.43
2023-03-11T09:38:45.748Z,5.25
2023-03-11T09:41:45.042Z,6.13
2023-03-11T09:44:29.695Z,4.03
2023-03-11T09:47:26.228Z,6.20
2023-03-11T09:50:16.765Z,3.80
2023-03-11T09:52:50.659Z,3.58
2023-03-11T09:55:29.322Z,4.93
2023-03-11T09:57:59.257Z,4.57
2023-03-11T10:00:27.352Z,4.43
2023-03-11T10:02:56.493Z,7.57
2023-03-11T10:05:27.532Z,3.80
2023-03-11T10:08:01.654Z,6.82
2023-03-11T10:10:32.653Z,7.53
2023-03-11T10:13:05.336Z,7.63
2023-03-11T10:15:41.204Z,7.50
2023-03-11T10:18:26.409Z,6.88
2023-03-11T10:20:58.703Z,8.48
2023-03-11T10:23:34.155Z,5.25
2023-03-11T10:26:07.395Z,8.70
2023-03-11T10:28:38.445Z,7.22
2023-03-11T10:31:20.824Z,6.57
2023-03-11T10:36:24.118Z,8.68
2023-03-11T10:38:55.499Z,6.68
2023-03-11T10:41:28.649Z,7.72
2023-03-11T10:44:03.141Z,7.13
2023-03-11T10:46:31.272Z,4.82
2023-03-11T10:48:59.700Z,5.90
2023-03-11T10:51:33.624Z,4.78
2023-03-11T10:54:05.130Z,6.03
2023-03-11T10:56:34.962Z,6.65
2023-03-11T10:59:05.158Z,5.97
2023-03-11T11:01:33.450Z,6.20
2023-03-11T11:04:02.775Z,6.30
2023-03-11T11:06:33.012Z,5.75
2023-03-11T11:09:26.808Z,7.53
2023-03-11T11:12:13.047Z,8.48
2023-03-11T11:14:48.774Z,6.97
2023-03-11T11:17:24.117Z,10.85
2023-03-11T11:19:53.894Z,9.35
2023-03-11T11:22:23.759Z,10.07
2023-03-11T11:24:54.745Z,7.13
2023-03-11T11:27:24.278Z,18.10
2023-03-11T11:30:14.752Z,11.60
2023-03-11T11:32:42.817Z,10.13
2023-03-11T11:35:13.593Z,7.25
2023-03-11T11:37:43.987Z,10.35
2023-03-11T11:40:25.955Z,8.63
2023-03-11T11:42:56.882Z,9.57
2023-03-11T11:45:33.844Z,13.48
2023-03-11T11:48:06.505Z,16.25
2023-03-11T11:50:37.552Z,10.52
2023-03-11T11:53:13.316Z,9.88
2023-03-11T11:55:45.493Z,12.25
2023-03-11T11:58:13.545Z,11.38
2023-03-11T12:00:47.619Z,11.05
2023-03-11T12:03:35.316Z,10.60
2023-03-11T12:06:09.626Z,9.15
2023-03-11T12:08:40.868Z,13.43
2023-03-11T12:11:14.658Z,10.20
2023-03-11T12:13:50.113Z,10.60
2023-03-11T12:16:27.803Z,11.27
2023-03-11T12:18:58.114Z,16.75
2023-03-11T12:21:48.677Z,15.05
2023-03-11T12:24:26.511Z,11.43
2023-03-11T12:26:59.457Z,11.82
2023-03-11T12:29:30.955Z,15.60
2023-03-11T12:32:01.710Z,18.38
2023-03-11T12:34:30.802Z,12.85
2023-03-11T12:37:03.376Z,7.80
2023-03-11T12:39:33.590Z,18.95
2023-03-11T12:42:20.378Z,14.30
2023-03-11T12:44:49.616Z,18.52
2023-03-11T12:47:25.891Z,12.25
2023-03-11T12:49:55.670Z,16.58
2023-03-11T12:52:26.561Z,16.70
2023-03-11T12:55:30.581Z,22.55
2023-03-11T12:58:17.015Z,20.77
2023-03-11T13:00:53.814Z,20.67
2023-03-11T13:03:40.992Z,16.45
2023-03-11T13:06:22.260Z,11.68
2023-03-11T13:08:52.080Z,17.30
2023-03-11T13:11:40.370Z,14.00
2023-03-11T13:14:29.545Z,15.50
2023-03-11T13:16:58.506Z,15.68
2023-03-11T13:19:39.237Z,14.52
2023-03-11T13:22:40.270Z,20.30
2023-03-11T13:25:31.510Z,20.65
2023-03-11T13:28:09.177Z,15.68
2023-03-11T13:30:40.511Z,28.35
2023-03-11T13:33:22.667Z,20.05
2023-03-11T13:39:12.451Z,7.65
2023-03-11T13:41:43.791Z,14.85
2023-03-11T13:44:16.040Z,15.68
2023-03-11T13:46:49.894Z,16.67
2023-03-11T13:49:26.991Z,19.42
2023-03-11T13:51:57.512Z,17.10
2023-03-11T13:54:33.899Z,21.30
2023-03-11T13:57:04.022Z,16.48
2023-03-11T13:59:34.767Z,16.73
2023-03-11T14:02:17.470Z,16.20
2023-03-11T14:04:51.889Z,21.67
2023-03-11T14:07:25.808Z,25.30
2023-03-11T14:10:18.240Z,21.83
2023-03-11T14:15:17.431Z,24.92
2023-03-11T14:17:48.771Z,29.33
2023-03-11T14:20:18.734Z,22.60
2023-03-11T14:22:48.627Z,27.38
2023-03-11T14:25:20.468Z,31.13
2023-03-11T14:27:57.274Z,15.80
2023-03-11T14:30:27.211Z,18.92
2023-03-11T14:33:02.363Z,24.67
2023-03-11T14:35:31.403Z,21.50
2023-03-11T14:38:00.319Z,21.67
2023-03-11T14:40:30.740Z,16.13
2023-03-11T14:43:01.146Z,19.08
2023-03-11T14:45:31.197Z,22.65
2023-03-11T14:48:05.281Z,12.77
2023-03-11T14:50:35.126Z,13.23
2023-03-11T14:53:06.419Z,19.20
2023-03-11T14:55:40.240Z,15.43
2023-03-11T14:58:13.996Z,14.20
2023-03-11T15:00:44.379Z,17.42
2023-03-11T15:03:20.567Z,19.33
2023-03-11T15:05:50.695Z,25.98
2023-03-11T15:08:21.533Z,31.15
2023-03-11T15:11:20.925Z,30.52
2023-03-11T15:13:51.247Z,31.92
2023-03-11T15:16:30.481Z,30.70
2023-03-11T15:19:02.442Z,32.78
2023-03-11T15:21:31.231Z,28.25
2023-03-11T15:24:05.146Z,32.70
2023-03-11T15:26:34.992Z,35.20
2023-03-11T15:29:07.079Z,31.58
2023-03-11T15:31:37.561Z,29.85
2023-03-11T15:34:12.449Z,25.33
2023-03-11T15:36:45.665Z,26.65
2023-03-11T15:39:17.638Z,26.33
2023-03-11T15:41:48.256Z,24.15
2023-03-11T15:44:25.835Z,31.35
2023-03-11T15:46:54.106Z,36.45
2023-03-11T15:49:23.623Z,22.20
2023-03-11T15:51:51.601Z,34.33
2023-03-11T15:54:19.886Z,34.75
2023-03-11T15:56:47.879Z,34.83
2023-03-11T15:59:18.410Z,29.95
2023-03-11T16:01:47.230Z,30.52
2023-03-11T16:04:17.207Z,27.42
2023-03-11T16:06:56.520Z,27.05
2023-03-11T16:09:32.949Z,29.33
2023-03-11T16:12:00.981Z,28.33
2023-03-11T16:14:29.709Z,37.13
2023-03-11T16:16:58.290Z,43.13
2023-03-11T16:19:26.607Z,41.20
2023-03-11T16:21:55.836Z,38.97
2023-03-11T16:24:25.960Z,49.30
2023-03-11T16:26:54.528Z,38.00
2023-03-11T16:29:24.050Z,39.78
2023-03-11T16:31:52.889Z,45.90
2023-03-11T16:34:22.503Z,34.58
2023-03-11T16:36:50.545Z,29.15
2023-03-11T16:39:20.239Z,28.17
2023-03-11T16:41:48.224Z,28.63
2023-03-11T16:44:16.397Z,27.08
2023-03-11T16:46:44.314Z,21.65
2023-03-11T16:49:12.698Z,25.23
2023-03-11T16:51:40.599Z,29.70
2023-03-11T16:54:08.967Z,31.70
2023-03-11T16:56:41.756Z,32.50
2023-03-11T16:59:10.234Z,27.05
2023-03-11T17:01:39.043Z,27.10
2023-03-11T17:04:07.911Z,25.92
2023-03-11T17:06:36.028Z,27.52
2023-03-11T17:09:04.281Z,23.33
2023-03-11T17:11:33.348Z,26.95
2023-03-11T17:14:15.625Z,22.17
2023-03-11T17:16:44.987Z,33.60
2023-03-11T17:19:13.323Z,21.20
2023-03-11T17:21:41.354Z,19.75
2023-03-11T17:24:10.292Z,24.05
2023-03-11T17:26:38.353Z,15.65
2023-03-11T17:29:07.972Z,17.27
2023-03-11T17:31:36.205Z,17.45
2023-03-11T17:34:04.543Z,18.35
2023-03-11T17:36:32.444Z,14.45
2023-03-11T17:39:00.662Z,19.75
2023-03-11T17:41:28.582Z,17.77
2023-03-11T17:43:56.858Z,22.10
2023-03-11T17:46:26.118Z,24.73
2023-03-11T17:48:54.412Z,15.60
2023-03-11T17:51:23.797Z,18.42
2023-03-11T17:53:53.463Z,17.05
2023-03-11T17:56:22.084Z,17.50
2023-03-11T17:58:51.251Z,18.75
2023-03-11T18:01:22.008Z,12.60
2023-03-11T18:03:51.806Z,14.43
2023-03-11T18:06:20.804Z,16.67
2023-03-11T18:08:49.396Z,19.85
2023-03-11T18:11:19.930Z,19.65
2023-03-11T18:13:48.203Z,22.95
2023-03-11T18:16:17.615Z,16.17
2023-03-11T18:18:46.600Z,23.00
2023-03-11T18:21:17.691Z,15.75
2023-03-11T18:23:46.821Z,17.30
2023-03-11T18:26:16.422Z,14.65
2023-03-11T18:28:44.915Z,15.93
2023-03-11T18:31:14.520Z,15.52
2023-03-11T18:33:44.127Z,14.27
2023-03-11T18:36:18.431Z,13.85
2023-03-11T18:38:47.538Z,15.20
2023-03-11T18:41:15.816Z,15.98
2023-03-11T18:43:44.464Z,18.73
2023-03-11T18:46:15.342Z,18.40
2023-03-11T18:48:43.689Z,16.60
2023-03-11T18:51:12.743Z,20.65
2023-03-11T18:53:42.983Z,16.73
2023-03-11T18:56:13.364Z,21.77
2023-03-11T18:58:41.721Z,18.73
2023-03-11T19:01:12.279Z,22.63
2023-03-11T19:03:40.734Z,20.80
2023-03-11T19:06:09.272Z,22.35
2023-03-11T19:08:37.546Z,18.23
2023-03-11T19:11:08.934Z,22.83
2023-03-11T19:13:46.583Z,18.92
2023-03-11T19:16:17.364Z,17.23
2023-03-11T19:18:46.489Z,24.40
2023-03-11T19:21:15.632Z,20.80
2023-03-11T19:23:44.613Z,23.38
2023-03-11T19:26:14.373Z,21.75
2023-03-11T19:28:42.975Z,20.30
2023-03-11T19:31:11.057Z,21.77
2023-03-11T19:33:39.915Z,27.42
2023-03-11T19:36:09.004Z,18.48
2023-03-11T19:38:37.536Z,25.98
2023-03-11T19:41:07.269Z,16.08
2023-03-11T19:43:37.202Z,23.98
2023-03-11T19:46:06.034Z,21.77
2023-03-11T19:48:34.624Z,21.73
2023-03-11T19:51:03.197Z,23.30
2023-03-11T19:53:31.566Z,24.08
2023-03-11T19:56:00.211Z,24.33
2023-03-11T19:58:30.603Z,26.48
2023-03-11T20:01:02.085Z,22.48
2023-03-11T20:03:30.505Z,29.20
2023-03-11T20:06:05.143Z,24.75
2023-03-11T20:08:36.648Z,25.77
2023-03-11T20:11:06.450Z,28.23
2023-03-11T20:13:35.687Z,25.27
2023-03-11T20:16:10.571Z,20.95
2023-03-11T20:18:38.950Z,22.33
2023-03-11T20:21:08.232Z,22.85
2023-03-11T20:23:37.437Z,15.93
2023-03-11T20:26:06.833Z,15.20
2023-03-11T20:28:35.210Z,19.10
2023-03-11T20:31:10.745Z,19.45
2023-03-11T20:33:39.324Z,16.85
2023-03-11T20:36:09.084Z,16.23
2023-03-11T20:38:37.432Z,21.65
2023-03-11T20:41:07.991Z,21.13
2023-03-11T20:43:36.641Z,18.85
2023-03-11T20:46:05.031Z,20.90
2023-03-11T20:48:35.056Z,22.52
2023-03-11T20:51:03.486Z,24.33
2023-03-11T20:53:32.208Z,23.08
2023-03-11T20:56:00.775Z,22.55
2023-03-11T20:58:29.036Z,27.00
2023-03-11T21:00:57.128Z,27.35
2023-03-11T21:03:25.631Z,26.83
2023-03-11T21:05:55.210Z,31.05
2023-03-11T21:08:23.518Z,27.20
2023-03-11T21:10:51.581Z,24.38
2023-03-11T21:13:20.008Z,30.70
2023-03-11T21:15:48.063Z,24.58
2023-03-11T21:18:16.459Z,28.58
2023-03-11T21:20:44.418Z,28.83
2023-03-11T21:23:14.395Z,27.80
2023-03-11T21:25:43.537Z,28.02
2023-03-11T21:28:13.353Z,29.35
2023-03-11T21:30:42.328Z,32.58
2023-03-11T21:33:13.176Z,28.20
2023-03-11T21:35:41.336Z,26.38
2023-03-11T21:38:09.582Z,22.70
2023-03-11T21:40:38.935Z,26.15
2023-03-11T21:43:07.305Z,27.30
2023-03-11T21:45:35.474Z,30.17
2023-03-11T21:48:06.661Z,27.42
2023-03-11T21:50:34.928Z,24.00
2023-03-11T21:53:03.248Z,29.30
2023-03-11T21:55:31.410Z,25.25
2023-03-11T21:58:01.108Z,23.42
2023-03-11T22:00:29.067Z,27.45
2023-03-11T22:02:57.295Z,29.50
2023-03-11T22:05:25.989Z,34.83
2023-03-11T22:07:54.332Z,27.10
2023-03-11T22:10:22.808Z,23.15
2023-03-11T22:12:51.263Z,30.17
2023-03-11T22:15:20.749Z,31.60
2023-03-11T22:17:49.066Z,25.95
2023-03-11T22:20:17.985Z,25.58
2023-03-11T22:22:46.134Z,24.65
2023-03-11T22:25:14.146Z,26.55
2023-03-11T22:27:42.343Z,25.40
2023-03-11T22:30:11.392Z,24.45
2023-03-11T22:32:40.999Z,24.80
2023-03-11T22:35:09.558Z,24.63
2023-03-11T22:37:37.739Z,29.95
2023-03-11T22:40:08.703Z,26.52
2023-03-11T22:42:37.356Z,30.25
2023-03-11T22:45:06.672Z,27.35
2023-03-11T22:47:34.910Z,32.63
2023-03-11T22:50:04.635Z,24.02
2023-03-11T22:52:32.800Z,29.98
2023-03-11T22:55:00.901Z,28.08
2023-03-11T22:57:29.062Z,26.05
2023-03-11T22:59:57.209Z,23.40
2023-03-11T23:02:25.719Z,30.48
2023-03-11T23:04:53.635Z,34.05
2023-03-11T23:07:23.109Z,36.58
2023-03-11T23:09:51.007Z,32.90
2023-03-11T23:12:19.323Z,28.83
2023-03-11T23:14:47.226Z,32.08
2023-03-11T23:17:15.484Z,37.40
2023-03-11T23:19:43.541Z,29.88
2023-03-11T23:22:11.711Z,36.47
2023-03-11T23:24:40.950Z,34.42
2023-03-11T23:27:09.179Z,40.05
2023-03-11T23:29:37.230Z,37.00
2023-03-11T23:32:06.096Z,35.88
2023-03-11T23:34:33.995Z,38.10
2023-03-11T23:37:05.287Z,38.22
2023-03-11T23:39:33.358Z,31.48
2023-03-11T23:42:14.817Z,38.88
2023-03-11T23:44:50.851Z,21.25
2023-03-11T23:47:19.105Z,35.53
2023-03-11T23:49:47.073Z,37.78
2023-03-11T23:52:15.418Z,41.15
2023-03-11T23:54:43.370Z,36.33
2023-03-11T23:57:12.866Z,36.70
2023-03-11T23:59:40.882Z,38.90
